sensor_id;sensor_type;location;lat;lon;timestamp;P1;durP1;ratioP1;P2;durP2;ratioP2
53339;SDS011;46212;50.258;19.062;2023-01-24T00:02:01;42.65;;;16.85;;
53339;SDS011;46212;50.258;19.062;2023-01-24T00:04:27;39.85;;;19.23;;
53339;SDS011;46212;50.258;19.062;2023-01-24T00:06:52;36.92;;;14.55;;
53339;SDS011;46212;50.258;19.062;2023-01-24T00:09:18;43.35;;;14.65;;
53339;SDS011;46212;50.258;19.062;2023-01-24T00:11:43;36.10;;;15.05;;
53339;SDS011;46212;50.258;19.062;2023-01-24T00:14:09;34.25;;;16.85;;
53339;SDS011;46212;50.258;19.062;2023-01-24T00:16:34;36.03;;;14.80;;
53339;SDS011;46212;50.258;19.062;2023-01-24T00:19:00;32.55;;;14.20;;
53339;SDS011;46212;50.258;19.062;2023-01-24T00:21:25;34.40;;;14.45;;
53339;SDS011;46212;50.258;19.062;2023-01-24T00:23:52;35.53;;;14.48;;
53339;SDS011;46212;50.258;19.062;2023-01-24T00:26:19;26.90;;;12.85;;
53339;SDS011;46212;50.258;19.062;2023-01-24T00:28:45;32.45;;;12.45;;
53339;SDS011;46212;50.258;19.062;2023-01-24T00:31:11;35.75;;;14.80;;
53339;SDS011;46212;50.258;19.062;2023-01-24T00:33:37;30.65;;;14.25;;
53339;SDS011;46212;50.258;19.062;2023-01-24T00:36:03;35.65;;;14.65;;
53339;SDS011;46212;50.258;19.062;2023-01-24T00:38:29;36.60;;;15.33;;
53339;SDS011;46212;50.258;19.062;2023-01-24T00:40:56;31.65;;;14.98;;
53339;SDS011;46212;50.258;19.062;2023-01-24T00:43:21;38.20;;;14.77;;
53339;SDS011;46212;50.258;19.062;2023-01-24T00:45:47;37.00;;;15.70;;
53339;SDS011;46212;50.258;19.062;2023-01-24T00:48:12;44.15;;;17.52;;
53339;SDS011;46212;50.258;19.062;2023-01-24T00:50:38;39.03;;;14.82;;
53339;SDS011;46212;50.258;19.062;2023-01-24T00:53:04;36.10;;;15.43;;
53339;SDS011;46212;50.258;19.062;2023-01-24T00:55:29;34.58;;;14.43;;
53339;SDS011;46212;50.258;19.062;2023-01-24T00:57:55;35.95;;;15.70;;
53339;SDS011;46212;50.258;19.062;2023-01-24T01:00:21;33.50;;;15.55;;
53339;SDS011;46212;50.258;19.062;2023-01-24T01:02:47;37.92;;;16.35;;
53339;SDS011;46212;50.258;19.062;2023-01-24T01:05:13;36.25;;;15.57;;
53339;SDS011;46212;50.258;19.062;2023-01-24T01:07:39;26.88;;;12.55;;
53339;SDS011;46212;50.258;19.062;2023-01-24T01:10:04;36.78;;;14.55;;
53339;SDS011;46212;50.258;19.062;2023-01-24T01:12:30;35.58;;;15.77;;
53339;SDS011;46212;50.258;19.062;2023-01-24T01:14:55;26.33;;;13.55;;
53339;SDS011;46212;50.258;19.062;2023-01-24T01:17:21;34.90;;;13.50;;
53339;SDS011;46212;50.258;19.062;2023-01-24T01:19:50;32.65;;;13.30;;
53339;SDS011;46212;50.258;19.062;2023-01-24T01:22:16;35.28;;;16.40;;
53339;SDS011;46212;50.258;19.062;2023-01-24T01:24:42;33.10;;;15.55;;
53339;SDS011;46212;50.258;19.062;2023-01-24T01:27:07;34.40;;;14.50;;
53339;SDS011;46212;50.258;19.062;2023-01-24T01:29:33;29.95;;;13.07;;
53339;SDS011;46212;50.258;19.062;2023-01-24T01:31:59;35.75;;;14.85;;
53339;SDS011;46212;50.258;19.062;2023-01-24T01:34:24;33.42;;;14.45;;
53339;SDS011;46212;50.258;19.062;2023-01-24T01:36:49;37.70;;;14.32;;
53339;SDS011;46212;50.258;19.062;2023-01-24T01:39:15;35.83;;;15.77;;
53339;SDS011;46212;50.258;19.062;2023-01-24T01:41:40;30.38;;;15.98;;
53339;SDS011;46212;50.258;19.062;2023-01-24T01:44:28;35.33;;;15.65;;
53339;SDS011;46212;50.258;19.062;2023-01-24T01:52:22;29.17;;;14.00;;
53339;SDS011;46212;50.258;19.062;2023-01-24T01:54:50;32.40;;;14.93;;
53339;SDS011;46212;50.258;19.062;2023-01-24T01:57:26;36.30;;;16.15;;
53339;SDS011;46212;50.258;19.062;2023-01-24T01:59:56;36.28;;;16.25;;
53339;SDS011;46212;50.258;19.062;2023-01-24T02:02:26;30.45;;;14.15;;
53339;SDS011;46212;50.258;19.062;2023-01-24T02:05:00;33.17;;;13.98;;
53339;SDS011;46212;50.258;19.062;2023-01-24T02:07:34;33.30;;;13.75;;
53339;SDS011;46212;50.258;19.062;2023-01-24T02:10:06;35.65;;;14.88;;
53339;SDS011;46212;50.258;19.062;2023-01-24T02:12:33;33.40;;;17.50;;
53339;SDS011;46212;50.258;19.062;2023-01-24T02:15:05;33.90;;;15.07;;
53339;SDS011;46212;50.258;19.062;2023-01-24T02:17:51;36.13;;;14.60;;
53339;SDS011;46212;50.258;19.062;2023-01-24T02:25:48;32.83;;;13.73;;
53339;SDS011;46212;50.258;19.062;2023-01-24T02:28:27;35.63;;;14.02;;
53339;SDS011;46212;50.258;19.062;2023-01-24T02:31:00;39.25;;;16.00;;
53339;SDS011;46212;50.258;19.062;2023-01-24T02:33:25;33.00;;;14.02;;
53339;SDS011;46212;50.258;19.062;2023-01-24T02:35:56;29.55;;;16.40;;
53339;SDS011;46212;50.258;19.062;2023-01-24T02:39:31;34.42;;;15.95;;
53339;SDS011;46212;50.258;19.062;2023-01-24T02:41:40;29.50;;;13.48;;
53339;SDS011;46212;50.258;19.062;2023-01-24T02:44:11;34.28;;;15.25;;
53339;SDS011;46212;50.258;19.062;2023-01-24T02:46:42;35.30;;;16.60;;
53339;SDS011;46212;50.258;19.062;2023-01-24T02:51:35;46.70;;;14.80;;
53339;SDS011;46212;50.258;19.062;2023-01-24T02:54:19;35.50;;;15.23;;
53339;SDS011;46212;50.258;19.062;2023-01-24T02:56:44;34.50;;;16.23;;
53339;SDS011;46212;50.258;19.062;2023-01-24T02:59:28;32.97;;;13.82;;
53339;SDS011;46212;50.258;19.062;2023-01-24T03:01:54;38.33;;;17.53;;
53339;SDS011;46212;50.258;19.062;2023-01-24T03:04:20;42.60;;;17.30;;
53339;SDS011;46212;50.258;19.062;2023-01-24T03:06:45;35.88;;;15.60;;
53339;SDS011;46212;50.258;19.062;2023-01-24T03:09:11;36.10;;;16.05;;
53339;SDS011;46212;50.258;19.062;2023-01-24T03:11:58;30.23;;;14.30;;
53339;SDS011;46212;50.258;19.062;2023-01-24T03:14:44;32.72;;;14.57;;
53339;SDS011;46212;50.258;19.062;2023-01-24T03:17:31;35.90;;;14.83;;
53339;SDS011;46212;50.258;19.062;2023-01-24T03:20:15;38.45;;;14.55;;
53339;SDS011;46212;50.258;19.062;2023-01-24T03:22:59;33.15;;;13.95;;
53339;SDS011;46212;50.258;19.062;2023-01-24T03:25:43;32.42;;;14.30;;
53339;SDS011;46212;50.258;19.062;2023-01-24T03:28:27;36.10;;;16.67;;
53339;SDS011;46212;50.258;19.062;2023-01-24T03:31:11;31.52;;;15.45;;
53339;SDS011;46212;50.258;19.062;2023-01-24T03:33:55;34.95;;;15.02;;
53339;SDS011;46212;50.258;19.062;2023-01-24T03:36:39;31.90;;;13.07;;
53339;SDS011;46212;50.258;19.062;2023-01-24T03:39:05;27.73;;;13.30;;
53339;SDS011;46212;50.258;19.062;2023-01-24T03:41:48;31.17;;;14.43;;
53339;SDS011;46212;50.258;19.062;2023-01-24T03:44:14;31.48;;;13.82;;
53339;SDS011;46212;50.258;19.062;2023-01-24T03:46:39;27.50;;;12.55;;
53339;SDS011;46212;50.258;19.062;2023-01-24T03:49:05;31.23;;;12.02;;
53339;SDS011;46212;50.258;19.062;2023-01-24T03:51:31;36.33;;;12.27;;
53339;SDS011;46212;50.258;19.062;2023-01-24T03:54:15;25.35;;;11.05;;
53339;SDS011;46212;50.258;19.062;2023-01-24T03:56:41;24.33;;;12.60;;
53339;SDS011;46212;50.258;19.062;2023-01-24T03:59:06;21.05;;;10.20;;
53339;SDS011;46212;50.258;19.062;2023-01-24T04:01:32;27.50;;;10.50;;
53339;SDS011;46212;50.258;19.062;2023-01-24T04:03:57;22.92;;;10.07;;
53339;SDS011;46212;50.258;19.062;2023-01-24T04:06:23;24.92;;;12.60;;
53339;SDS011;46212;50.258;19.062;2023-01-24T04:08:48;25.98;;;12.30;;
53339;SDS011;46212;50.258;19.062;2023-01-24T04:11:14;29.48;;;16.85;;
53339;SDS011;46212;50.258;19.062;2023-01-24T04:13:40;33.90;;;17.33;;
53339;SDS011;46212;50.258;19.062;2023-01-24T04:16:06;32.53;;;18.15;;
53339;SDS011;46212;50.258;19.062;2023-01-24T04:18:32;40.15;;;17.08;;
53339;SDS011;46212;50.258;19.062;2023-01-24T04:21:00;29.65;;;15.50;;
53339;SDS011;46212;50.258;19.062;2023-01-24T04:23:26;27.58;;;14.77;;
53339;SDS011;46212;50.258;19.062;2023-01-24T04:25:52;28.38;;;14.25;;
53339;SDS011;46212;50.258;19.062;2023-01-24T04:28:21;25.35;;;13.45;;
53339;SDS011;46212;50.258;19.062;2023-01-24T04:30:48;25.73;;;15.05;;
53339;SDS011;46212;50.258;19.062;2023-01-24T04:33:14;34.72;;;22.52;;
53339;SDS011;46212;50.258;19.062;2023-01-24T04:35:39;51.47;;;33.33;;
53339;SDS011;46212;50.258;19.062;2023-01-24T04:38:05;32.33;;;18.58;;
53339;SDS011;46212;50.258;19.062;2023-01-24T04:40:30;36.80;;;21.85;;
53339;SDS011;46212;50.258;19.062;2023-01-24T04:42:56;22.48;;;11.00;;
53339;SDS011;46212;50.258;19.062;2023-01-24T04:45:23;24.73;;;10.35;;
53339;SDS011;46212;50.258;19.062;2023-01-24T04:47:49;23.40;;;10.18;;
53339;SDS011;46212;50.258;19.062;2023-01-24T04:50:14;16.50;;;8.75;;
53339;SDS011;46212;50.258;19.062;2023-01-24T04:52:40;23.90;;;9.73;;
53339;SDS011;46212;50.258;19.062;2023-01-24T04:55:05;21.50;;;10.32;;
53339;SDS011;46212;50.258;19.062;2023-01-24T04:57:31;20.20;;;10.27;;
53339;SDS011;46212;50.258;19.062;2023-01-24T04:59:57;20.23;;;8.93;;
53339;SDS011;46212;50.258;19.062;2023-01-24T05:02:23;19.87;;;8.80;;
53339;SDS011;46212;50.258;19.062;2023-01-24T05:04:48;25.27;;;12.07;;
53339;SDS011;46212;50.258;19.062;2023-01-24T05:07:13;26.92;;;9.82;;
53339;SDS011;46212;50.258;19.062;2023-01-24T05:09:39;17.83;;;8.68;;
53339;SDS011;46212;50.258;19.062;2023-01-24T05:12:04;23.60;;;10.20;;
53339;SDS011;46212;50.258;19.062;2023-01-24T05:14:30;23.08;;;8.95;;
53339;SDS011;46212;50.258;19.062;2023-01-24T05:16:55;20.27;;;10.13;;
53339;SDS011;46212;50.258;19.062;2023-01-24T05:19:21;21.23;;;9.63;;
53339;SDS011;46212;50.258;19.062;2023-01-24T05:21:47;17.27;;;8.63;;
53339;SDS011;46212;50.258;19.062;2023-01-24T05:24:12;16.67;;;8.00;;
53339;SDS011;46212;50.258;19.062;2023-01-24T05:26:37;17.13;;;8.57;;
53339;SDS011;46212;50.258;19.062;2023-01-24T05:29:03;17.42;;;8.30;;
53339;SDS011;46212;50.258;19.062;2023-01-24T05:31:28;16.03;;;8.33;;
53339;SDS011;46212;50.258;19.062;2023-01-24T05:33:54;15.53;;;8.53;;
53339;SDS011;46212;50.258;19.062;2023-01-24T05:36:20;19.50;;;9.48;;
53339;SDS011;46212;50.258;19.062;2023-01-24T05:38:47;18.38;;;8.20;;
53339;SDS011;46212;50.258;19.062;2023-01-24T05:41:13;18.33;;;8.15;;
53339;SDS011;46212;50.258;19.062;2023-01-24T05:43:42;17.73;;;8.50;;
53339;SDS011;46212;50.258;19.062;2023-01-24T05:46:25;18.23;;;9.40;;
53339;SDS011;46212;50.258;19.062;2023-01-24T05:48:51;18.13;;;8.50;;
53339;SDS011;46212;50.258;19.062;2023-01-24T05:51:17;19.92;;;9.13;;
53339;SDS011;46212;50.258;19.062;2023-01-24T05:53:44;17.45;;;9.07;;
53339;SDS011;46212;50.258;19.062;2023-01-24T05:56:12;22.13;;;10.30;;
53339;SDS011;46212;50.258;19.062;2023-01-24T05:58:39;20.30;;;9.80;;
53339;SDS011;46212;50.258;19.062;2023-01-24T06:01:08;20.38;;;8.57;;
53339;SDS011;46212;50.258;19.062;2023-01-24T06:03:44;17.30;;;8.45;;
53339;SDS011;46212;50.258;19.062;2023-01-24T06:06:14;21.90;;;8.82;;
53339;SDS011;46212;50.258;19.062;2023-01-24T06:08:42;16.88;;;8.05;;
53339;SDS011;46212;50.258;19.062;2023-01-24T06:11:12;20.55;;;8.70;;
53339;SDS011;46212;50.258;19.062;2023-01-24T06:13:43;18.77;;;9.75;;
53339;SDS011;46212;50.258;19.062;2023-01-24T06:16:10;16.00;;;10.20;;
53339;SDS011;46212;50.258;19.062;2023-01-24T06:18:38;23.00;;;11.52;;
53339;SDS011;46212;50.258;19.062;2023-01-24T06:21:08;32.63;;;15.32;;
53339;SDS011;46212;50.258;19.062;2023-01-24T06:23:54;23.52;;;14.32;;
53339;SDS011;46212;50.258;19.062;2023-01-24T06:26:20;26.63;;;14.15;;
53339;SDS011;46212;50.258;19.062;2023-01-24T06:28:45;25.45;;;12.70;;
53339;SDS011;46212;50.258;19.062;2023-01-24T06:38:55;22.98;;;10.60;;
53339;SDS011;46212;50.258;19.062;2023-01-24T06:41:20;21.10;;;10.75;;
53339;SDS011;46212;50.258;19.062;2023-01-24T06:43:46;19.20;;;9.43;;
53339;SDS011;46212;50.258;19.062;2023-01-24T06:46:12;20.92;;;8.80;;
53339;SDS011;46212;50.258;19.062;2023-01-24T06:48:38;15.65;;;7.65;;
53339;SDS011;46212;50.258;19.062;2023-01-24T06:51:08;20.02;;;9.18;;
53339;SDS011;46212;50.258;19.062;2023-01-24T06:53:36;16.70;;;8.65;;
53339;SDS011;46212;50.258;19.062;2023-01-24T06:56:01;21.23;;;8.55;;
53339;SDS011;46212;50.258;19.062;2023-01-24T06:58:27;16.77;;;6.50;;
53339;SDS011;46212;50.258;19.062;2023-01-24T07:00:52;11.52;;;6.20;;
53339;SDS011;46212;50.258;19.062;2023-01-24T07:03:18;17.42;;;7.43;;
53339;SDS011;46212;50.258;19.062;2023-01-24T07:05:44;13.93;;;7.25;;
53339;SDS011;46212;50.258;19.062;2023-01-24T07:08:09;17.75;;;8.50;;
53339;SDS011;46212;50.258;19.062;2023-01-24T07:10:35;20.08;;;8.77;;
53339;SDS011;46212;50.258;19.062;2023-01-24T07:13:00;13.63;;;6.63;;
53339;SDS011;46212;50.258;19.062;2023-01-24T07:15:26;16.23;;;8.60;;
53339;SDS011;46212;50.258;19.062;2023-01-24T07:17:51;16.23;;;6.57;;
53339;SDS011;46212;50.258;19.062;2023-01-24T07:20:17;17.05;;;7.28;;
53339;SDS011;46212;50.258;19.062;2023-01-24T07:22:43;16.60;;;7.90;;
53339;SDS011;46212;50.258;19.062;2023-01-24T07:25:13;19.58;;;6.88;;
53339;SDS011;46212;50.258;19.062;2023-01-24T07:27:48;16.95;;;6.93;;
53339;SDS011;46212;50.258;19.062;2023-01-24T07:30:14;13.77;;;6.55;;
53339;SDS011;46212;50.258;19.062;2023-01-24T07:32:39;13.20;;;6.53;;
53339;SDS011;46212;50.258;19.062;2023-01-24T07:35:05;15.30;;;6.90;;
53339;SDS011;46212;50.258;19.062;2023-01-24T07:37:31;11.30;;;6.23;;
53339;SDS011;46212;50.258;19.062;2023-01-24T07:39:57;13.88;;;6.78;;
53339;SDS011;46212;50.258;19.062;2023-01-24T07:42:22;11.60;;;5.68;;
53339;SDS011;46212;50.258;19.062;2023-01-24T07:44:48;13.93;;;6.57;;
53339;SDS011;46212;50.258;19.062;2023-01-24T07:47:13;13.18;;;5.97;;
53339;SDS011;46212;50.258;19.062;2023-01-24T07:49:39;14.80;;;7.10;;
53339;SDS011;46212;50.258;19.062;2023-01-24T07:52:04;16.10;;;7.65;;
53339;SDS011;46212;50.258;19.062;2023-01-24T07:54:29;16.20;;;8.27;;
53339;SDS011;46212;50.258;19.062;2023-01-24T07:56:55;17.13;;;7.65;;
53339;SDS011;46212;50.258;19.062;2023-01-24T07:59:20;15.45;;;8.10;;
53339;SDS011;46212;50.258;19.062;2023-01-24T08:01:46;21.42;;;10.75;;
53339;SDS011;46212;50.258;19.062;2023-01-24T08:04:11;25.65;;;12.63;;
53339;SDS011;46212;50.258;19.062;2023-01-24T08:06:38;18.25;;;10.38;;
53339;SDS011;46212;50.258;19.062;2023-01-24T08:09:04;23.05;;;11.65;;
53339;SDS011;46212;50.258;19.062;2023-01-24T08:11:29;20.80;;;11.10;;
53339;SDS011;46212;50.258;19.062;2023-01-24T08:13:55;30.08;;;13.30;;
53339;SDS011;46212;50.258;19.062;2023-01-24T08:16:20;24.50;;;10.93;;
53339;SDS011;46212;50.258;19.062;2023-01-24T08:18:50;28.63;;;12.55;;
53339;SDS011;46212;50.258;19.062;2023-01-24T08:21:16;34.00;;;12.88;;
53339;SDS011;46212;50.258;19.062;2023-01-24T08:23:41;28.05;;;10.32;;
53339;SDS011;46212;50.258;19.062;2023-01-24T08:26:07;20.57;;;9.10;;
53339;SDS011;46212;50.258;19.062;2023-01-24T08:28:32;26.33;;;11.17;;
53339;SDS011;46212;50.258;19.062;2023-01-24T08:30:58;24.73;;;11.07;;
53339;SDS011;46212;50.258;19.062;2023-01-24T08:33:24;31.73;;;12.38;;
53339;SDS011;46212;50.258;19.062;2023-01-24T08:35:50;27.70;;;11.60;;
53339;SDS011;46212;50.258;19.062;2023-01-24T08:38:15;33.72;;;12.48;;
53339;SDS011;46212;50.258;19.062;2023-01-24T08:40:41;41.05;;;13.75;;
53339;SDS011;46212;50.258;19.062;2023-01-24T08:43:08;40.03;;;14.00;;
53339;SDS011;46212;50.258;19.062;2023-01-24T08:45:33;39.25;;;15.50;;
53339;SDS011;46212;50.258;19.062;2023-01-24T08:47:59;41.58;;;15.07;;
53339;SDS011;46212;50.258;19.062;2023-01-24T08:50:25;36.83;;;14.20;;
53339;SDS011;46212;50.258;19.062;2023-01-24T08:52:53;34.53;;;12.05;;
53339;SDS011;46212;50.258;19.062;2023-01-24T08:55:20;29.83;;;13.35;;
53339;SDS011;46212;50.258;19.062;2023-01-24T08:57:46;37.80;;;14.32;;
53339;SDS011;46212;50.258;19.062;2023-01-24T09:00:11;33.42;;;13.70;;
53339;SDS011;46212;50.258;19.062;2023-01-24T09:02:37;37.80;;;13.15;;
53339;SDS011;46212;50.258;19.062;2023-01-24T09:05:04;34.83;;;13.27;;
53339;SDS011;46212;50.258;19.062;2023-01-24T09:07:30;32.28;;;12.45;;
53339;SDS011;46212;50.258;19.062;2023-01-24T09:09:56;29.33;;;12.73;;
53339;SDS011;46212;50.258;19.062;2023-01-24T09:12:21;30.20;;;12.15;;
53339;SDS011;46212;50.258;19.062;2023-01-24T09:14:47;25.37;;;11.60;;
53339;SDS011;46212;50.258;19.062;2023-01-24T09:17:12;33.25;;;13.75;;
53339;SDS011;46212;50.258;19.062;2023-01-24T09:19:37;29.38;;;12.77;;
53339;SDS011;46212;50.258;19.062;2023-01-24T09:22:03;28.25;;;11.70;;
53339;SDS011;46212;50.258;19.062;2023-01-24T09:24:28;27.10;;;12.52;;
53339;SDS011;46212;50.258;19.062;2023-01-24T09:26:54;28.33;;;13.23;;
53339;SDS011;46212;50.258;19.062;2023-01-24T09:29:19;27.40;;;11.87;;
53339;SDS011;46212;50.258;19.062;2023-01-24T09:31:46;28.27;;;13.30;;
53339;SDS011;46212;50.258;19.062;2023-01-24T09:34:12;23.42;;;12.45;;
53339;SDS011;46212;50.258;19.062;2023-01-24T09:36:38;20.48;;;9.15;;
53339;SDS011;46212;50.258;19.062;2023-01-24T09:39:04;19.65;;;9.75;;
53339;SDS011;46212;50.258;19.062;2023-01-24T09:41:38;24.17;;;9.68;;
53339;SDS011;46212;50.258;19.062;2023-01-24T09:44:27;25.63;;;11.45;;
53339;SDS011;46212;50.258;19.062;2023-01-24T09:46:57;21.23;;;9.52;;
53339;SDS011;46212;50.258;19.062;2023-01-24T09:49:38;21.40;;;8.98;;
53339;SDS011;46212;50.258;19.062;2023-01-24T09:52:12;20.90;;;9.38;;
53339;SDS011;46212;50.258;19.062;2023-01-24T09:54:54;25.83;;;10.25;;
53339;SDS011;46212;50.258;19.062;2023-01-24T10:00:10;20.90;;;8.80;;
53339;SDS011;46212;50.258;19.062;2023-01-24T10:02:44;22.10;;;8.75;;
53339;SDS011;46212;50.258;19.062;2023-01-24T10:05:13;23.08;;;10.95;;
53339;SDS011;46212;50.258;19.062;2023-01-24T10:07:55;31.73;;;13.05;;
53339;SDS011;46212;50.258;19.062;2023-01-24T10:24:01;28.17;;;11.63;;
53339;SDS011;46212;50.258;19.062;2023-01-24T10:26:34;24.85;;;9.93;;
53339;SDS011;46212;50.258;19.062;2023-01-24T10:31:44;24.20;;;10.23;;
53339;SDS011;46212;50.258;19.062;2023-01-24T10:37:06;27.50;;;11.43;;
53339;SDS011;46212;50.258;19.062;2023-01-24T10:39:42;26.93;;;11.50;;
53339;SDS011;46212;50.258;19.062;2023-01-24T10:42:18;26.60;;;12.70;;
53339;SDS011;46212;50.258;19.062;2023-01-24T10:44:47;30.83;;;13.13;;
53339;SDS011;46212;50.258;19.062;2023-01-24T10:49:53;26.00;;;10.85;;
53339;SDS011;46212;50.258;19.062;2023-01-24T10:52:26;25.80;;;12.15;;
53339;SDS011;46212;50.258;19.062;2023-01-24T11:02:46;33.00;;;12.30;;
53339;SDS011;46212;50.258;19.062;2023-01-24T11:05:16;26.55;;;11.95;;
53339;SDS011;46212;50.258;19.062;2023-01-24T11:07:50;26.67;;;12.15;;
53339;SDS011;46212;50.258;19.062;2023-01-24T11:12:54;29.85;;;12.00;;
53339;SDS011;46212;50.258;19.062;2023-01-24T11:15:25;30.63;;;11.85;;
53339;SDS011;46212;50.258;19.062;2023-01-24T11:17:54;29.52;;;11.82;;
53339;SDS011;46212;50.258;19.062;2023-01-24T11:20:28;32.25;;;15.80;;
53339;SDS011;46212;50.258;19.062;2023-01-24T11:23:08;27.67;;;11.90;;
53339;SDS011;46212;50.258;19.062;2023-01-24T11:25:56;26.05;;;11.70;;
53339;SDS011;46212;50.258;19.062;2023-01-24T11:28:26;27.40;;;13.23;;
53339;SDS011;46212;50.258;19.062;2023-01-24T11:31:00;27.60;;;13.00;;
53339;SDS011;46212;50.258;19.062;2023-01-24T11:59:47;24.52;;;13.70;;
53339;SDS011;46212;50.258;19.062;2023-01-24T12:05:23;28.60;;;16.33;;
53339;SDS011;46212;50.258;19.062;2023-01-24T12:21:20;30.02;;;20.70;;
53339;SDS011;46212;50.258;19.062;2023-01-24T12:23:51;21.77;;;15.13;;
53339;SDS011;46212;50.258;19.062;2023-01-24T12:26:23;20.27;;;10.70;;
53339;SDS011;46212;50.258;19.062;2023-01-24T12:37:49;19.55;;;10.95;;
53339;SDS011;46212;50.258;19.062;2023-01-24T12:40:22;81.05;;;41.22;;
53339;SDS011;46212;50.258;19.062;2023-01-24T12:45:26;82.25;;;35.95;;
53339;SDS011;46212;50.258;19.062;2023-01-24T12:48:21;43.15;;;28.35;;
53339;SDS011;46212;50.258;19.062;2023-01-24T12:51:03;20.92;;;15.98;;
53339;SDS011;46212;50.258;19.062;2023-01-24T12:53:38;32.38;;;21.45;;
53339;SDS011;46212;50.258;19.062;2023-01-24T12:56:14;40.30;;;27.00;;
53339;SDS011;46212;50.258;19.062;2023-01-24T12:58:45;32.53;;;21.33;;
53339;SDS011;46212;50.258;19.062;2023-01-24T13:10:36;30.77;;;16.40;;
53339;SDS011;46212;50.258;19.062;2023-01-24T13:26:46;18.20;;;9.57;;
53339;SDS011;46212;50.258;19.062;2023-01-24T13:29:22;15.82;;;10.73;;
53339;SDS011;46212;50.258;19.062;2023-01-24T13:32:15;19.75;;;10.20;;
53339;SDS011;46212;50.258;19.062;2023-01-24T13:34:44;26.02;;;11.68;;
53339;SDS011;46212;50.258;19.062;2023-01-24T13:37:19;28.27;;;12.38;;
53339;SDS011;46212;50.258;19.062;2023-01-24T13:39:49;61.50;;;30.58;;
53339;SDS011;46212;50.258;19.062;2023-01-24T13:42:35;30.70;;;20.65;;
53339;SDS011;46212;50.258;19.062;2023-01-24T13:47:50;18.25;;;11.00;;
53339;SDS011;46212;50.258;19.062;2023-01-24T13:50:20;17.30;;;10.48;;
53339;SDS011;46212;50.258;19.062;2023-01-24T13:52:52;21.75;;;12.60;;
53339;SDS011;46212;50.258;19.062;2023-01-24T13:57:45;166.18;;;66.07;;
53339;SDS011;46212;50.258;19.062;2023-01-24T14:08:05;51.05;;;33.40;;
53339;SDS011;46212;50.258;19.062;2023-01-24T14:21:19;38.70;;;25.83;;
53339;SDS011;46212;50.258;19.062;2023-01-24T14:23:48;25.33;;;16.73;;
53339;SDS011;46212;50.258;19.062;2023-01-24T14:26:21;21.17;;;14.50;;
53339;SDS011;46212;50.258;19.062;2023-01-24T14:28:52;46.22;;;24.33;;
53339;SDS011;46212;50.258;19.062;2023-01-24T14:33:58;21.60;;;15.68;;
53339;SDS011;46212;50.258;19.062;2023-01-24T14:36:31;17.55;;;11.10;;
53339;SDS011;46212;50.258;19.062;2023-01-24T14:41:47;32.53;;;22.05;;
53339;SDS011;46212;50.258;19.062;2023-01-24T14:44:15;25.50;;;17.77;;
53339;SDS011;46212;50.258;19.062;2023-01-24T14:46:53;26.23;;;18.15;;
53339;SDS011;46212;50.258;19.062;2023-01-24T14:49:26;36.25;;;18.83;;
53339;SDS011;46212;50.258;19.062;2023-01-24T14:52:01;49.20;;;30.85;;
53339;SDS011;46212;50.258;19.062;2023-01-24T14:54:42;34.90;;;25.67;;
53339;SDS011;46212;50.258;19.062;2023-01-24T14:57:20;48.50;;;31.90;;
53339;SDS011;46212;50.258;19.062;2023-01-24T14:59:46;54.63;;;41.30;;
53339;SDS011;46212;50.258;19.062;2023-01-24T15:02:31;43.50;;;27.73;;
53339;SDS011;46212;50.258;19.062;2023-01-24T15:04:58;47.80;;;30.02;;
53339;SDS011;46212;50.258;19.062;2023-01-24T15:07:23;37.67;;;25.40;;
53339;SDS011;46212;50.258;19.062;2023-01-24T15:09:49;24.88;;;15.13;;
53339;SDS011;46212;50.258;19.062;2023-01-24T15:15:15;46.92;;;31.55;;
53339;SDS011;46212;50.258;19.062;2023-01-24T15:17:44;36.50;;;23.83;;
53339;SDS011;46212;50.258;19.062;2023-01-24T15:20:15;24.50;;;14.75;;
53339;SDS011;46212;50.258;19.062;2023-01-24T15:22:43;23.50;;;15.38;;
53339;SDS011;46212;50.258;19.062;2023-01-24T15:25:20;26.33;;;14.30;;
53339;SDS011;46212;50.258;19.062;2023-01-24T15:27:54;29.77;;;16.13;;
53339;SDS011;46212;50.258;19.062;2023-01-24T15:33:38;30.67;;;19.58;;
53339;SDS011;46212;50.258;19.062;2023-01-24T15:35:37;30.13;;;18.88;;
53339;SDS011;46212;50.258;19.062;2023-01-24T15:43:27;39.95;;;25.95;;
53339;SDS011;46212;50.258;19.062;2023-01-24T15:46:29;29.13;;;17.27;;
53339;SDS011;46212;50.258;19.062;2023-01-24T15:51:57;22.33;;;11.70;;
53339;SDS011;46212;50.258;19.062;2023-01-24T15:59:42;15.38;;;9.27;;
53339;SDS011;46212;50.258;19.062;2023-01-24T16:02:13;14.90;;;7.43;;
53339;SDS011;46212;50.258;19.062;2023-01-24T16:04:39;59.15;;;38.67;;
53339;SDS011;46212;50.258;19.062;2023-01-24T16:07:05;31.88;;;21.45;;
53339;SDS011;46212;50.258;19.062;2023-01-24T16:09:31;23.25;;;11.57;;
53339;SDS011;46212;50.258;19.062;2023-01-24T16:11:57;15.85;;;7.60;;
53339;SDS011;46212;50.258;19.062;2023-01-24T16:16:51;29.98;;;15.07;;
53339;SDS011;46212;50.258;19.062;2023-01-24T16:19:20;19.77;;;13.10;;
53339;SDS011;46212;50.258;19.062;2023-01-24T16:21:48;40.00;;;23.75;;
53339;SDS011;46212;50.258;19.062;2023-01-24T16:24:14;22.13;;;14.60;;
53339;SDS011;46212;50.258;19.062;2023-01-24T16:26:41;21.17;;;11.63;;
53339;SDS011;46212;50.258;19.062;2023-01-24T16:29:20;25.63;;;15.35;;
53339;SDS011;46212;50.258;19.062;2023-01-24T16:31:49;22.50;;;14.48;;
53339;SDS011;46212;50.258;19.062;2023-01-24T16:34:14;32.22;;;18.70;;
53339;SDS011;46212;50.258;19.062;2023-01-24T16:36:40;34.22;;;18.13;;
53339;SDS011;46212;50.258;19.062;2023-01-24T16:39:06;33.55;;;20.15;;
53339;SDS011;46212;50.258;19.062;2023-01-24T16:41:32;26.17;;;17.05;;
53339;SDS011;46212;50.258;19.062;2023-01-24T16:43:58;25.67;;;13.88;;
53339;SDS011;46212;50.258;19.062;2023-01-24T16:46:23;28.25;;;16.55;;
53339;SDS011;46212;50.258;19.062;2023-01-24T16:48:49;22.65;;;13.63;;
53339;SDS011;46212;50.258;19.062;2023-01-24T16:51:16;19.83;;;13.00;;
53339;SDS011;46212;50.258;19.062;2023-01-24T16:53:42;30.25;;;16.50;;
53339;SDS011;46212;50.258;19.062;2023-01-24T16:56:08;28.55;;;17.60;;
53339;SDS011;46212;50.258;19.062;2023-01-24T16:58:34;31.05;;;19.70;;
53339;SDS011;46212;50.258;19.062;2023-01-24T17:01:00;31.33;;;22.85;;
53339;SDS011;46212;50.258;19.062;2023-01-24T17:03:30;32.10;;;23.42;;
53339;SDS011;46212;50.258;19.062;2023-01-24T17:05:55;35.30;;;24.80;;
53339;SDS011;46212;50.258;19.062;2023-01-24T17:08:21;21.40;;;14.18;;
53339;SDS011;46212;50.258;19.062;2023-01-24T17:10:46;22.60;;;12.55;;
53339;SDS011;46212;50.258;19.062;2023-01-24T17:13:12;35.33;;;20.27;;
53339;SDS011;46212;50.258;19.062;2023-01-24T17:15:37;22.83;;;13.33;;
53339;SDS011;46212;50.258;19.062;2023-01-24T17:18:04;39.55;;;21.17;;
53339;SDS011;46212;50.258;19.062;2023-01-24T17:20:30;42.00;;;24.98;;
53339;SDS011;46212;50.258;19.062;2023-01-24T17:22:57;43.05;;;24.20;;
53339;SDS011;46212;50.258;19.062;2023-01-24T17:25:25;24.40;;;14.95;;
53339;SDS011;46212;50.258;19.062;2023-01-24T17:27:53;20.20;;;11.38;;